Time;durP1;ratioP1;P1;durP2;ratioP2;P2;SDS_P1;SDS_P2;PMS_P1;PMS_P2;Temp;Humidity;BMP_temperature;BMP_pressure;BME280_temperature;BME280_humidity;BME280_pressure;Samples;Min_cycle;Max_cycle;Signal;HPM_P1;HPM_P2
2022/03/03 00:00:33;;;;;;;8.27;3.78;;;6.20;99.90;;;;;;4988138;28;20072;-84
2022/03/03 00:03:00;;;;;;;6.55;3.42;;;6.20;99.90;;;;;;4990907;28;20036;-85
2022/03/03 00:05:26;;;;;;;9.15;3.22;;;6.10;99.90;;;;;;4988026;28;20033;-84
2022/03/03 00:07:52;;;;;;;9.45;4.03;;;6.00;99.90;;;;;;4995973;28;20068;-84
2022/03/03 00:10:19;;;;;;;11.43;3.42;;;5.90;99.90;;;;;;5006661;28;20100;-82
2022/03/03 00:12:45;;;;;;;8.05;4.05;;;5.90;99.90;;;;;;4991031;28;20360;-82
2022/03/03 00:15:11;;;;;;;6.93;3.42;;;5.90;99.90;;;;;;4994791;28;20070;-85
2022/03/03 00:17:38;;;;;;;11.45;3.53;;;6.00;99.90;;;;;;4990832;28;20037;-84
2022/03/03 00:20:06;;;;;;;8.98;4.28;;;6.00;99.90;;;;;;5006781;28;20043;-84
2022/03/03 00:22:32;;;;;;;9.05;3.53;;;6.00;99.90;;;;;;4989837;28;20394;-83
2022/03/03 00:24:58;;;;;;;8.10;3.67;;;6.00;99.90;;;;;;4990974;28;20037;-84
2022/03/03 00:27:25;;;;;;;11.57;3.40;;;6.00;99.90;;;;;;4987697;28;20025;-85
2022/03/03 00:29:52;;;;;;;7.72;3.65;;;6.00;99.90;;;;;;4989947;28;20109;-84
2022/03/03 00:32:19;;;;;;;8.38;3.17;;;6.00;99.90;;;;;;5007707;28;20062;-84
2022/03/03 00:34:46;;;;;;;9.80;3.60;;;6.00;99.90;;;;;;4996687;28;20125;-84
2022/03/03 00:37:12;;;;;;;8.52;3.50;;;6.00;99.90;;;;;;4988431;28;20030;-84
2022/03/03 00:39:39;;;;;;;7.40;2.83;;;6.00;99.90;;;;;;4987968;28;20469;-84
2022/03/03 00:42:05;;;;;;;5.57;2.58;;;6.00;99.90;;;;;;4999211;28;20029;-84
2022/03/03 00:44:32;;;;;;;8.68;3.03;;;6.00;99.90;;;;;;4977316;28;20081;-84
2022/03/03 00:46:59;;;;;;;4.55;2.45;;;6.00;99.90;;;;;;4979718;28;20056;-84
2022/03/03 00:49:25;;;;;;;14.25;2.80;;;6.00;99.90;;;;;;4963878;28;20042;-84
2022/03/03 00:51:52;;;;;;;4.10;2.45;;;6.10;99.90;;;;;;4978521;28;20049;-84
2022/03/03 00:54:19;;;;;;;7.78;2.75;;;6.10;99.90;;;;;;4987680;28;20034;-84
2022/03/03 00:56:46;;;;;;;6.15;2.60;;;6.00;99.90;;;;;;4985411;28;20101;-84
2022/03/03 00:59:13;;;;;;;7.63;2.08;;;6.00;99.90;;;;;;4974276;28;20030;-85
2022/03/03 01:01:40;;;;;;;6.82;3.55;;;5.90;99.90;;;;;;4974360;28;20072;-84
2022/03/03 01:04:08;;;;;;;7.53;2.25;;;6.00;99.90;;;;;;4971483;28;20030;-84
2022/03/03 01:06:34;;;;;;;3.88;2.08;;;6.00;99.90;;;;;;4985465;28;20037;-83
2022/03/03 01:09:01;;;;;;;8.27;2.15;;;6.00;99.90;;;;;;4970576;28;20092;-84
2022/03/03 01:11:28;;;;;;;12.45;2.60;;;6.00;99.90;;;;;;4988185;28;20033;-83
2022/03/03 01:13:54;;;;;;;5.32;2.50;;;6.10;99.90;;;;;;5004762;28;20073;-84
2022/03/03 01:16:20;;;;;;;5.90;2.22;;;6.10;99.90;;;;;;5004958;28;20061;-84
2022/03/03 01:18:53;;;;;;;9.60;2.45;;;6.00;99.90;;;;;;4976029;28;20114;-84
2022/03/03 01:21:23;;;;;;;4.68;2.00;;;6.00;99.90;;;;;;4973379;28;20028;-83
2022/03/03 01:23:49;;;;;;;3.55;1.80;;;5.90;99.90;;;;;;4976680;28;20393;-83
2022/03/03 01:26:16;;;;;;;5.38;2.78;;;5.90;99.90;;;;;;4978157;28;20391;-82
2022/03/03 01:28:42;;;;;;;5.35;2.00;;;6.00;99.90;;;;;;4981518;28;20101;-84
2022/03/03 01:31:09;;;;;;;6.40;2.25;;;6.00;99.90;;;;;;4984112;28;20044;-84
2022/03/03 01:33:36;;;;;;;8.05;1.67;;;6.00;99.90;;;;;;4967295;28;20061;-84
2022/03/03 01:36:03;;;;;;;5.65;1.88;;;6.00;99.90;;;;;;5001837;28;20027;-83
2022/03/03 01:38:29;;;;;;;6.28;1.95;;;6.00;99.90;;;;;;4981608;28;20423;-83
2022/03/03 01:40:56;;;;;;;3.47;1.80;;;6.10;99.90;;;;;;4976717;28;20387;-83
2022/03/03 01:43:22;;;;;;;7.57;1.65;;;6.10;99.90;;;;;;4971254;28;20042;-83
2022/03/03 01:45:49;;;;;;;4.80;2.75;;;6.10;99.90;;;;;;4988347;28;20493;-84
2022/03/03 01:48:15;;;;;;;8.45;2.20;;;6.10;99.90;;;;;;5008497;28;20025;-84
2022/03/03 01:50:42;;;;;;;5.38;1.65;;;6.00;99.90;;;;;;4995270;28;20041;-84
2022/03/03 01:53:08;;;;;;;8.75;2.25;;;6.00;99.90;;;;;;5004548;28;20030;-84
2022/03/03 01:55:35;;;;;;;3.60;1.52;;;6.00;99.90;;;;;;4987745;28;20100;-84
2022/03/03 01:58:04;;;;;;;2.80;1.27;;;6.00;99.90;;;;;;4999177;28;20026;-84
2022/03/03 02:00:31;;;;;;;2.97;1.80;;;6.00;99.90;;;;;;5000095;28;20040;-84
2022/03/03 02:03:00;;;;;;;7.07;2.00;;;6.00;99.90;;;;;;4996966;28;20045;-84
2022/03/03 02:05:28;;;;;;;6.82;1.92;;;6.00;99.90;;;;;;4996875;28;20416;-83
2022/03/03 02:07:55;;;;;;;4.40;1.50;;;6.10;99.90;;;;;;4993608;28;20022;-84
2022/03/03 02:10:21;;;;;;;5.30;2.20;;;6.10;99.90;;;;;;4998874;28;20121;-84
2022/03/03 02:12:48;;;;;;;6.18;1.95;;;6.10;99.90;;;;;;4999817;28;20095;-84
2022/03/03 02:15:21;;;;;;;1.98;1.23;;;6.10;99.90;;;;;;4989049;28;20061;-84
2022/03/03 02:17:47;;;;;;;3.03;1.27;;;6.10;99.90;;;;;;4995651;28;20028;-84
2022/03/03 02:20:24;;;;;;;3.97;1.60;;;6.10;99.90;;;;;;4992936;28;20087;-84
2022/03/03 02:22:52;;;;;;;9.45;1.83;;;6.10;99.90;;;;;;4990016;28;20026;-83
2022/03/03 02:25:19;;;;;;;2.55;1.50;;;6.10;99.90;;;;;;4995673;28;20053;-83
2022/03/03 02:27:46;;;;;;;6.82;1.67;;;6.10;99.90;;;;;;4999171;28;20508;-84
2022/03/03 02:30:16;;;;;;;5.45;1.50;;;6.10;99.90;;;;;;4998396;28;20052;-84
2022/03/03 02:32:43;;;;;;;2.95;1.38;;;6.00;99.90;;;;;;4993026;28;20025;-83
2022/03/03 02:35:10;;;;;;;2.70;1.30;;;6.00;99.90;;;;;;4998093;28;20029;-84
2022/03/03 02:37:39;;;;;;;4.15;1.85;;;6.00;99.90;;;;;;4986432;28;20022;-85
2022/03/03 02:40:13;;;;;;;5.53;1.60;;;6.00;99.90;;;;;;4992766;28;20061;-84
2022/03/03 02:42:40;;;;;;;4.17;1.50;;;6.00;99.90;;;;;;4992649;28;20026;-84
2022/03/03 02:45:07;;;;;;;3.55;1.25;;;6.00;99.90;;;;;;4978243;28;20376;-84
2022/03/03 02:47:41;;;;;;;1.48;1.30;;;6.00;99.90;;;;;;4976300;28;20472;-84
2022/03/03 02:50:09;;;;;;;3.00;1.17;;;6.10;99.90;;;;;;4987581;28;20041;-84
2022/03/03 02:52:36;;;;;;;2.08;1.10;;;6.00;99.90;;;;;;4979557;28;20030;-84
2022/03/03 02:55:04;;;;;;;2.55;1.13;;;6.00;99.90;;;;;;4970724;28;20101;-83
2022/03/03 03:00:29;;;;;;;4.82;1.60;;;6.00;99.90;;;;;;4988861;28;20117;-84
2022/03/03 03:02:56;;;;;;;2.92;1.48;;;6.10;99.90;;;;;;4979628;28;20097;-83
2022/03/03 03:05:26;;;;;;;5.65;1.25;;;6.10;99.90;;;;;;4978039;28;20383;-84
2022/03/03 03:07:53;;;;;;;1.98;1.17;;;6.00;99.90;;;;;;4971211;28;20034;-84
2022/03/03 03:10:19;;;;;;;3.35;1.75;;;6.00;99.90;;;;;;4980214;28;20042;-84
2022/03/03 03:12:46;;;;;;;4.50;1.90;;;6.10;99.90;;;;;;4987094;28;20026;-84
2022/03/03 03:15:13;;;;;;;3.65;1.55;;;6.20;99.90;;;;;;4975218;28;20026;-84
2022/03/03 03:17:40;;;;;;;8.63;2.90;;;6.20;99.90;;;;;;4987664;28;20018;-84
2022/03/03 03:20:08;;;;;;;5.82;1.58;;;6.20;99.90;;;;;;4970513;28;20029;-84
2022/03/03 03:22:36;;;;;;;8.93;1.17;;;6.10;99.90;;;;;;4974563;28;20026;-83
2022/03/03 03:25:07;;;;;;;4.60;1.25;;;6.10;99.90;;;;;;4969443;28;20030;-83
2022/03/03 03:27:38;;;;;;;2.53;1.67;;;6.10;99.90;;;;;;4967009;28;20109;-84
2022/03/03 03:30:08;;;;;;;2.58;1.35;;;6.10;99.90;;;;;;4972098;28;20029;-84
2022/03/03 03:32:35;;;;;;;1.48;1.38;;;6.10;99.90;;;;;;4973097;28;20169;-84
2022/03/03 03:35:02;;;;;;;1.30;1.20;;;6.10;99.90;;;;;;4979325;28;20045;-83
2022/03/03 03:37:29;;;;;;;8.13;1.75;;;6.10;99.90;;;;;;4977835;28;20022;-84
2022/03/03 03:39:56;;;;;;;3.05;1.70;;;6.10;99.90;;;;;;4969473;28;20032;-84
2022/03/03 03:42:25;;;;;;;3.88;1.50;;;6.20;99.90;;;;;;4971583;28;20077;-84
2022/03/03 03:44:52;;;;;;;5.93;1.33;;;6.20;99.90;;;;;;4988761;28;20050;-84
2022/03/03 03:47:18;;;;;;;3.55;0.98;;;6.30;99.90;;;;;;4980675;28;20399;-84
2022/03/03 03:49:45;;;;;;;2.22;1.55;;;6.30;99.90;;;;;;4972323;28;20412;-84
2022/03/03 03:52:12;;;;;;;4.10;1.98;;;6.30;99.90;;;;;;4967345;28;20022;-84
2022/03/03 03:54:39;;;;;;;1.73;1.25;;;6.30;99.90;;;;;;4963218;28;20038;-83
2022/03/03 03:57:06;;;;;;;3.15;1.45;;;6.30;99.90;;;;;;4985386;28;20546;-84
2022/03/03 03:59:36;;;;;;;2.40;1.20;;;6.30;99.90;;;;;;4977359;28;20036;-84
2022/03/03 04:02:03;;;;;;;3.28;1.27;;;6.20;99.90;;;;;;4972309;28;20026;-83
2022/03/03 04:04:29;;;;;;;2.58;1.38;;;6.30;99.90;;;;;;4980364;28;20039;-84
2022/03/03 04:06:56;;;;;;;5.85;1.90;;;6.40;99.90;;;;;;4966625;28;20025;-84
2022/03/03 04:09:22;;;;;;;4.18;1.58;;;6.50;99.90;;;;;;4963872;28;20033;-84
2022/03/03 04:11:49;;;;;;;5.70;1.38;;;6.50;99.90;;;;;;4968684;28;20034;-84
2022/03/03 04:14:16;;;;;;;3.03;1.25;;;6.40;99.90;;;;;;4968669;28;20021;-84
2022/03/03 04:16:42;;;;;;;11.25;1.75;;;6.40;99.90;;;;;;4968760;28;20085;-84
2022/03/03 04:19:09;;;;;;;10.35;1.88;;;6.40;99.90;;;;;;4963408;28;20030;-83
2022/03/03 04:21:36;;;;;;;5.43;1.52;;;6.30;99.90;;;;;;4968146;28;20034;-84
2022/03/03 04:24:05;;;;;;;3.45;1.33;;;6.30;99.90;;;;;;4986720;28;20430;-84
2022/03/03 04:26:33;;;;;;;2.83;1.40;;;6.40;99.90;;;;;;4976647;28;20030;-84
2022/03/03 04:29:00;;;;;;;1.83;0.77;;;6.30;99.90;;;;;;4969886;28;20447;-84
2022/03/03 04:31:27;;;;;;;3.58;1.52;;;6.40;99.90;;;;;;4987777;28;20026;-84
2022/03/03 04:33:55;;;;;;;5.15;1.70;;;6.40;99.90;;;;;;4971032;28;20440;-84
2022/03/03 04:36:22;;;;;;;1.77;1.20;;;6.40;99.90;;;;;;4967490;28;20105;-84
2022/03/03 04:38:50;;;;;;;1.67;0.93;;;6.40;99.90;;;;;;4974359;28;20038;-84
2022/03/03 04:41:18;;;;;;;1.88;1.48;;;6.40;99.90;;;;;;4978231;28;20026;-83
2022/03/03 04:43:45;;;;;;;3.88;1.75;;;6.40;99.90;;;;;;4981583;28;20046;-83
2022/03/03 04:46:12;;;;;;;3.88;1.42;;;6.40;99.90;;;;;;4970815;28;20565;-84
2022/03/03 04:48:39;;;;;;;4.07;1.48;;;6.40;99.90;;;;;;4981709;28;20121;-84
2022/03/03 04:51:05;;;;;;;4.63;1.27;;;6.40;99.90;;;;;;4989721;28;20113;-83
2022/03/03 04:53:32;;;;;;;5.22;1.13;;;6.30;99.90;;;;;;4987797;28;20022;-84
2022/03/03 04:55:59;;;;;;;6.25;1.88;;;6.40;99.90;;;;;;4981049;28;20049;-84
2022/03/03 04:58:26;;;;;;;4.40;1.73;;;6.40;99.90;;;;;;4968205;28;20029;-84
2022/03/03 05:00:53;;;;;;;2.50;1.45;;;6.40;99.90;;;;;;4992590;28;20029;-84
2022/03/03 05:03:20;;;;;;;5.05;1.40;;;6.40;99.90;;;;;;4967867;28;20030;-84
2022/03/03 05:05:46;;;;;;;3.95;1.70;;;6.40;99.90;;;;;;4972906;28;20099;-84
2022/03/03 05:08:13;;;;;;;5.38;1.77;;;6.40;99.90;;;;;;4987588;28;20066;-83
2022/03/03 05:10:40;;;;;;;9.45;1.58;;;6.50;99.90;;;;;;4974004;28;20493;-84
2022/03/03 05:13:07;;;;;;;6.18;2.53;;;6.50;99.90;;;;;;4979216;28;20073;-84
2022/03/03 05:15:34;;;;;;;3.25;1.55;;;6.40;99.90;;;;;;4976866;28;20114;-84
2022/03/03 05:18:00;;;;;;;3.15;1.85;;;6.30;99.90;;;;;;4987216;28;20037;-84
2022/03/03 05:20:27;;;;;;;2.67;1.35;;;6.30;99.90;;;;;;4973917;28;20037;-83
2022/03/03 05:22:54;;;;;;;2.78;1.70;;;6.20;99.90;;;;;;4976073;28;20025;-84
2022/03/03 05:25:21;;;;;;;7.70;1.80;;;6.30;99.90;;;;;;4962621;28;20375;-84
2022/03/03 05:27:47;;;;;;;4.85;1.85;;;6.30;99.90;;;;;;4991891;28;20033;-84
2022/03/03 05:30:14;;;;;;;3.83;1.75;;;6.40;99.90;;;;;;4991335;28;20029;-84
2022/03/03 05:32:44;;;;;;;3.72;1.80;;;6.40;99.90;;;;;;4969098;28;20054;-84
2022/03/03 05:35:10;;;;;;;2.78;1.40;;;6.50;99.90;;;;;;4977231;28;20097;-84
2022/03/03 05:37:38;;;;;;;3.88;1.63;;;6.60;99.90;;;;;;4979818;28;20030;-84
2022/03/03 05:40:05;;;;;;;2.33;1.38;;;6.60;99.90;;;;;;4991057;28;20400;-84
2022/03/03 05:42:32;;;;;;;3.55;1.73;;;6.60;99.90;;;;;;4974543;28;20054;-85
2022/03/03 05:44:59;;;;;;;7.72;2.33;;;6.40;99.90;;;;;;4985428;28;20398;-84
2022/03/03 05:47:29;;;;;;;3.47;1.67;;;6.40;99.90;;;;;;5002061;28;20037;-84
2022/03/03 05:49:59;;;;;;;5.53;2.03;;;6.40;99.90;;;;;;4975247;28;20042;-84
2022/03/03 05:52:25;;;;;;;9.55;2.63;;;6.50;99.90;;;;;;4972655;28;20018;-84
2022/03/03 05:54:52;;;;;;;3.30;2.00;;;6.50;99.90;;;;;;5008708;28;20021;-84
2022/03/03 05:57:35;;;;;;;5.55;1.83;;;6.50;99.90;;;;;;4990050;28;20381;-83
2022/03/03 06:00:17;;;;;;;2.95;1.98;;;6.60;99.90;;;;;;4997913;28;20500;-84
2022/03/03 06:02:52;;;;;;;2.72;1.60;;;6.60;99.90;;;;;;5008383;28;20054;-84
2022/03/03 06:05:24;;;;;;;5.28;1.70;;;6.70;99.90;;;;;;4989802;28;20139;-83
2022/03/03 06:08:04;;;;;;;4.70;1.80;;;6.80;99.90;;;;;;4974067;28;20110;-83
2022/03/03 06:10:33;;;;;;;6.15;1.67;;;6.80;99.90;;;;;;5003029;28;20038;-83
2022/03/03 06:13:28;;;;;;;4.05;1.48;;;6.70;99.90;;;;;;5000575;28;20066;-82
2022/03/03 06:15:55;;;;;;;2.80;1.45;;;6.80;99.90;;;;;;4994677;28;20029;-83
2022/03/03 06:18:30;;;;;;;6.60;1.92;;;6.70;99.90;;;;;;4985801;28;20459;-83
2022/03/03 06:20:58;;;;;;;10.13;2.45;;;6.70;99.90;;;;;;5002762;28;20018;-83
2022/03/03 06:23:25;;;;;;;4.13;1.65;;;6.80;99.90;;;;;;4967937;28;20045;-84
2022/03/03 06:26:16;;;;;;;5.38;1.80;;;6.80;99.90;;;;;;5002958;28;20022;-82
2022/03/03 06:28:43;;;;;;;10.18;2.38;;;6.80;99.90;;;;;;4979702;28;20155;-82
2022/03/03 06:31:11;;;;;;;3.72;2.08;;;6.70;99.90;;;;;;4997011;28;20697;-83
2022/03/03 06:33:39;;;;;;;4.30;2.10;;;6.90;99.90;;;;;;5003809;28;20484;-82
2022/03/03 06:36:06;;;;;;;7.55;2.22;;;7.00;99.90;;;;;;4995890;28;20022;-83
2022/03/03 06:38:34;;;;;;;4.63;1.92;;;7.00;99.90;;;;;;5005014;28;20137;-83
2022/03/03 06:41:02;;;;;;;6.65;2.85;;;7.20;99.90;;;;;;4968510;28;20080;-82
2022/03/03 06:43:30;;;;;;;3.50;1.98;;;7.20;99.90;;;;;;4988847;28;20072;-83
2022/03/03 06:45:57;;;;;;;2.83;1.55;;;7.20;99.90;;;;;;4991942;28;20032;-82
2022/03/03 06:48:25;;;;;;;3.28;1.63;;;7.30;99.90;;;;;;4994003;28;20453;-83
2022/03/03 06:50:57;;;;;;;4.22;1.52;;;7.50;99.90;;;;;;5000916;28;20490;-92
2022/03/03 06:53:39;;;;;;;3.47;1.40;;;7.80;99.90;;;;;;5002525;28;20034;-82
2022/03/03 06:56:07;;;;;;;4.78;1.70;;;7.90;99.90;;;;;;4991894;28;20104;-82
2022/03/03 06:58:35;;;;;;;11.88;2.03;;;8.10;99.90;;;;;;4998346;28;20543;-83
2022/03/03 07:01:05;;;;;;;5.60;2.05;;;8.00;99.90;;;;;;5000231;28;20029;-82
2022/03/03 07:03:32;;;;;;;3.95;1.40;;;8.10;99.90;;;;;;4991331;28;20030;-81
2022/03/03 07:06:00;;;;;;;5.65;1.52;;;8.20;99.90;;;;;;5000152;28;20148;-82
2022/03/03 07:08:27;;;;;;;3.92;1.67;;;8.00;99.90;;;;;;4990347;28;20026;-81
2022/03/03 07:10:53;;;;;;;5.53;1.75;;;8.00;99.90;;;;;;5007088;28;20029;-82
2022/03/03 07:13:20;;;;;;;3.70;1.58;;;8.00;99.90;;;;;;5005839;28;20025;-82
2022/03/03 07:15:51;;;;;;;5.35;1.67;;;8.10;99.90;;;;;;5009091;28;20028;-84
2022/03/03 07:18:34;;;;;;;3.38;1.52;;;8.10;99.90;;;;;;4998143;28;20075;-81
2022/03/03 07:21:10;;;;;;;5.90;1.77;;;8.20;99.90;;;;;;5008112;28;20029;-81
2022/03/03 07:23:40;;;;;;;2.15;1.52;;;8.30;99.90;;;;;;5025862;28;20052;-81
2022/03/03 07:26:13;;;;;;;5.40;1.98;;;8.30;99.90;;;;;;5006602;28;20474;-82
2022/03/03 07:28:44;;;;;;;2.80;1.58;;;8.40;99.90;;;;;;5026131;28;20057;-83
2022/03/03 07:31:16;;;;;;;7.20;1.80;;;8.50;99.90;;;;;;5025787;28;20072;-82
2022/03/03 07:33:48;;;;;;;3.40;2.20;;;8.60;99.90;;;;;;5005842;28;20032;-82
2022/03/03 07:36:34;;;;;;;5.30;2.00;;;8.70;99.90;;;;;;5023926;28;20025;-82
2022/03/03 07:39:05;;;;;;;5.63;1.63;;;8.80;99.90;;;;;;5005252;28;20030;-82
2022/03/03 07:41:32;;;;;;;5.10;1.77;;;9.00;99.90;;;;;;5000462;28;20025;-82
2022/03/03 07:43:59;;;;;;;6.20;2.88;;;8.90;99.90;;;;;;5000613;28;20495;-81
2022/03/03 07:46:27;;;;;;;10.05;2.63;;;9.10;99.90;;;;;;4977317;28;20026;-82
2022/03/03 07:48:53;;;;;;;4.65;2.75;;;9.20;99.90;;;;;;4987195;28;20066;-82
2022/03/03 07:51:20;;;;;;;4.85;2.10;;;9.20;99.90;;;;;;4979936;28;20134;-81
2022/03/03 07:53:48;;;;;;;6.05;2.20;;;9.20;99.90;;;;;;4985896;28;20380;-83
2022/03/03 07:56:33;;;;;;;5.35;1.98;;;9.30;99.90;;;;;;4970418;28;20033;-82
2022/03/03 07:59:08;;;;;;;10.40;2.25;;;9.30;99.90;;;;;;4971637;28;20089;-82
2022/03/03 08:01:36;;;;;;;4.25;2.47;;;9.30;99.90;;;;;;4978220;28;20037;-82
2022/03/03 08:04:02;;;;;;;4.28;2.28;;;9.40;99.90;;;;;;4985862;28;20104;-82
2022/03/03 08:06:32;;;;;;;9.15;1.98;;;9.40;99.90;;;;;;4987452;28;20037;-83
2022/03/03 08:09:00;;;;;;;4.68;1.63;;;9.50;99.90;;;;;;4986334;28;20030;-82
2022/03/03 08:11:28;;;;;;;20.38;2.92;;;9.50;99.90;;;;;;4985061;28;20034;-81
2022/03/03 08:13:55;;;;;;;3.38;1.80;;;9.60;99.90;;;;;;5003384;28;20141;-81
2022/03/03 08:16:21;;;;;;;6.85;1.80;;;9.60;99.90;;;;;;5004076;28;20026;-82
2022/03/03 08:18:48;;;;;;;4.47;2.63;;;9.70;99.90;;;;;;4986245;28;20454;-82
2022/03/03 08:21:15;;;;;;;8.73;2.35;;;9.70;99.90;;;;;;4983325;28;20394;-82
2022/03/03 08:23:45;;;;;;;6.45;2.08;;;9.90;99.90;;;;;;4971423;28;20037;-81
2022/03/03 08:26:12;;;;;;;4.95;2.38;;;10.00;99.90;;;;;;4970268;28;20022;-82
2022/03/03 08:28:40;;;;;;;10.25;3.05;;;10.10;99.90;;;;;;4977163;28;20084;-82
2022/03/03 08:31:09;;;;;;;6.90;2.95;;;10.00;99.90;;;;;;4974561;28;20088;-82
2022/03/03 08:33:43;;;;;;;4.25;2.15;;;10.00;99.90;;;;;;5004235;28;20041;-81
2022/03/03 08:36:30;;;;;;;13.52;2.13;;;10.00;99.90;;;;;;4971139;28;20398;-82
2022/03/03 08:39:03;;;;;;;13.02;4.57;;;9.90;99.90;;;;;;4987028;28;20476;-81
2022/03/03 08:41:32;;;;;;;8.00;3.00;;;10.00;99.90;;;;;;4984549;28;20042;-82
2022/03/03 08:44:03;;;;;;;4.70;2.28;;;10.20;99.90;;;;;;4978291;28;20092;-82
2022/03/03 08:46:33;;;;;;;8.45;2.58;;;10.30;99.90;;;;;;4989008;28;20530;-82
2022/03/03 08:49:01;;;;;;;14.82;3.92;;;10.20;99.90;;;;;;4996517;28;20022;-82
2022/03/03 08:51:28;;;;;;;10.18;3.17;;;10.10;99.90;;;;;;5005128;28;20107;-81
2022/03/03 08:53:54;;;;;;;6.35;2.95;;;10.10;99.90;;;;;;4996850;28;20045;-81
2022/03/03 08:56:22;;;;;;;7.57;2.60;;;10.20;99.90;;;;;;5006735;28;20417;-81
2022/03/03 08:58:50;;;;;;;6.57;3.05;;;10.30;99.90;;;;;;5007984;28;20033;-82
2022/03/03 09:01:16;;;;;;;5.20;2.60;;;10.40;99.90;;;;;;5004821;28;20021;-81
2022/03/03 09:03:43;;;;;;;8.85;3.13;;;10.30;99.90;;;;;;4989774;28;20474;-81
2022/03/03 09:06:14;;;;;;;6.00;2.78;;;10.20;99.90;;;;;;5003705;28;20100;-82
2022/03/03 09:08:40;;;;;;;9.85;3.25;;;10.20;99.90;;;;;;5006491;28;20409;-82
2022/03/03 09:11:06;;;;;;;7.05;3.15;;;10.20;99.90;;;;;;4985783;28;20364;-81
2022/03/03 09:13:33;;;;;;;8.00;3.13;;;10.40;99.90;;;;;;5005346;28;20109;-82
2022/03/03 09:15:59;;;;;;;6.20;2.83;;;10.40;99.90;;;;;;4989872;28;20150;-81
2022/03/03 09:18:26;;;;;;;6.50;2.50;;;10.40;99.90;;;;;;5003532;28;20026;-82
2022/03/03 09:20:52;;;;;;;12.93;3.63;;;10.50;99.90;;;;;;4988941;28;20386;-82
2022/03/03 09:23:19;;;;;;;7.47;2.90;;;10.60;99.90;;;;;;4988038;28;20033;-82
2022/03/03 09:25:45;;;;;;;15.15;3.00;;;10.70;99.90;;;;;;4990021;28;20026;-83
2022/03/03 09:28:11;;;;;;;5.88;2.90;;;10.60;99.90;;;;;;5006415;28;20112;-84
2022/03/03 09:30:38;;;;;;;8.45;3.30;;;10.70;99.90;;;;;;4989845;28;20401;-83
2022/03/03 09:33:05;;;;;;;8.77;3.80;;;10.80;99.90;;;;;;4990583;28;20486;-82
2022/03/03 09:35:32;;;;;;;5.40;2.85;;;10.90;99.90;;;;;;4995425;28;20030;-82
2022/03/03 09:37:58;;;;;;;5.93;3.58;;;10.90;99.90;;;;;;4987990;28;20159;-82
2022/03/03 09:40:25;;;;;;;10.23;3.60;;;11.00;99.90;;;;;;4987377;28;20030;-82
2022/03/03 09:43:04;;;;;;;6.93;2.63;;;11.10;99.90;;;;;;5003952;28;20470;-84
2022/03/03 16:19:41;;;;;;;7.32;3.70;;;11.20;99.90;;;;;;5723792;23;20047;-94
2022/03/03 16:22:08;;;;;;;12.23;4.00;;;11.20;99.90;;;;;;4978225;28;20026;-93
2022/03/03 16:24:35;;;;;;;9.00;4.10;;;11.10;99.90;;;;;;4977994;28;20030;-92
2022/03/03 16:27:01;;;;;;;9.55;4.85;;;11.10;99.90;;;;;;4977933;28;20030;-95
2022/03/03 16:29:28;;;;;;;8.65;4.05;;;11.00;99.90;;;;;;4978290;28;20034;-96
2022/03/03 16:32:17;;;;;;;7.05;4.30;;;10.90;99.90;;;;;;4993465;28;20083;-93
2022/03/03 16:34:57;;;;;;;10.68;4.45;;;10.90;99.90;;;;;;4978727;28;20415;-94
2022/03/03 16:37:26;;;;;;;12.52;4.50;;;10.80;99.90;;;;;;4978286;28;20034;-94
2022/03/03 16:39:56;;;;;;;10.45;4.43;;;10.70;99.90;;;;;;4978110;28;20034;-93
2022/03/03 16:42:23;;;;;;;13.82;4.13;;;10.70;99.90;;;;;;4995143;28;20022;-92
2022/03/03 16:44:53;;;;;;;11.30;4.72;;;10.70;99.90;;;;;;4985438;28;20030;-93
2022/03/03 16:47:23;;;;;;;12.50;5.03;;;10.70;99.90;;;;;;4988874;28;20035;-94
2022/03/03 16:49:53;;;;;;;15.40;4.45;;;10.60;99.90;;;;;;4979473;28;20030;-93
2022/03/03 16:52:32;;;;;;;;;;;;;;;;;;;;;
2022/03/03 16:55:07;;;;;;;12.18;4.05;;;10.50;99.90;;;;;;4996457;23;20046;-94
2022/03/03 17:01:31;;;;;;;;;;;;;;;;;;;;;
2022/03/03 17:04:27;;;;;;;9.73;4.30;;;10.20;99.90;;;;;;4955115;29;20038;-93
2022/03/03 17:10:09;;;;;;;7.32;3.97;;;10.20;99.90;;;;;;4956645;29;20078;-92
2022/03/03 17:12:39;;;;;;;14.75;4.93;;;10.10;99.90;;;;;;4922873;29;20115;-93
2022/03/03 17:15:12;;;;;;;11.40;4.28;;;10.00;99.90;;;;;;4922320;29;20038;-92
2022/03/03 17:17:39;;;;;;;14.55;4.60;;;10.00;99.90;;;;;;4922361;29;20448;-93
2022/03/03 17:20:06;;;;;;;12.82;4.53;;;10.00;99.90;;;;;;4922444;29;20047;-92
2022/03/03 17:22:33;;;;;;;12.00;4.53;;;10.00;99.90;;;;;;4937945;29;20075;-91
2022/03/03 17:24:59;;;;;;;14.30;4.90;;;9.90;99.90;;;;;;4922255;29;20122;-92
2022/03/03 17:27:26;;;;;;;11.38;4.65;;;9.90;99.90;;;;;;4960728;23;20625;-92
2022/03/03 17:29:52;;;;;;;12.82;4.70;;;9.90;99.90;;;;;;4997067;28;20423;-92
2022/03/03 17:32:19;;;;;;;19.30;4.93;;;9.90;99.90;;;;;;4997400;28;20030;-92
2022/03/03 17:34:45;;;;;;;14.63;4.88;;;9.80;99.90;;;;;;4981535;28;20121;-92
2022/03/03 17:37:13;;;;;;;11.60;5.80;;;9.80;99.90;;;;;;4997797;28;20023;-94
2022/03/03 17:39:40;;;;;;;17.45;6.25;;;9.80;99.90;;;;;;4997097;28;20026;-94
2022/03/03 17:42:06;;;;;;;11.18;4.88;;;9.80;99.90;;;;;;4997218;28;20034;-93
2022/03/03 17:44:33;;;;;;;13.80;5.93;;;9.80;99.90;;;;;;4980968;28;20104;-91
2022/03/03 17:46:59;;;;;;;14.40;5.97;;;9.70;99.90;;;;;;4997395;28;20098;-94
2022/03/03 17:49:26;;;;;;;13.35;6.65;;;9.70;99.90;;;;;;4981383;28;20495;-92
2022/03/03 17:51:53;;;;;;;14.07;6.30;;;9.70;99.90;;;;;;4996966;28;20041;-93
2022/03/03 17:54:20;;;;;;;20.77;7.75;;;9.60;99.90;;;;;;4985287;28;20070;-91
2022/03/03 17:56:47;;;;;;;19.80;6.50;;;9.60;99.90;;;;;;5007152;28;20073;-94
2022/03/03 17:59:14;;;;;;;18.98;6.85;;;9.60;99.90;;;;;;4989395;28;20022;-95
2022/03/03 18:01:42;;;;;;;15.70;6.68;;;9.60;99.90;;;;;;5005347;28;20026;-94
2022/03/03 18:04:15;;;;;;;16.63;7.35;;;9.50;99.90;;;;;;4989762;28;20039;-94
2022/03/03 18:06:42;;;;;;;16.45;8.45;;;9.50;99.90;;;;;;5026118;28;20045;-93
2022/03/03 18:09:09;;;;;;;21.00;8.25;;;9.50;99.90;;;;;;5014392;28;20026;-92
2022/03/03 18:11:36;;;;;;;17.77;8.27;;;9.50;99.90;;;;;;5024028;28;20034;-92
2022/03/03 18:14:04;;;;;;;16.92;7.95;;;9.50;99.90;;;;;;5025875;28;20022;-92
2022/03/03 18:16:31;;;;;;;25.02;9.45;;;9.40;99.90;;;;;;5025816;28;20026;-94
2022/03/03 18:19:05;;;;;;;19.73;8.65;;;9.40;99.90;;;;;;5026507;28;20022;-93
2022/03/03 18:21:32;;;;;;;20.00;8.77;;;9.40;99.90;;;;;;5025895;28;20029;-91
2022/03/03 18:23:59;;;;;;;22.02;9.90;;;9.30;99.90;;;;;;5025284;28;20065;-94
2022/03/03 18:26:25;;;;;;;28.45;10.25;;;9.30;99.90;;;;;;5026015;28;20034;-93
2022/03/03 18:28:52;;;;;;;27.70;12.10;;;9.30;99.90;;;;;;5028931;28;20049;-92
2022/03/03 18:31:19;;;;;;;30.63;12.27;;;9.30;99.90;;;;;;5028222;28;20091;-92
2022/03/03 18:33:46;;;;;;;39.25;14.80;;;9.20;99.90;;;;;;5029459;28;20033;-94
2022/03/03 18:36:13;;;;;;;39.58;16.63;;;9.20;99.90;;;;;;5012168;28;20033;-93
2022/03/03 18:38:40;;;;;;;32.05;16.15;;;9.20;99.90;;;;;;5009029;28;20052;-92
2022/03/03 18:41:06;;;;;;;39.28;16.50;;;9.20;99.90;;;;;;5011576;28;20097;-91
2022/03/03 18:43:35;;;;;;;36.63;15.77;;;9.10;99.90;;;;;;5030730;28;20041;-90
2022/03/03 18:46:02;;;;;;;36.40;16.10;;;9.00;99.90;;;;;;5012467;28;20022;-92
2022/03/03 18:48:28;;;;;;;46.17;15.77;;;9.00;99.90;;;;;;5010629;28;20041;-92
2022/03/03 18:50:55;;;;;;;37.05;14.13;;;9.00;99.90;;;;;;5028753;28;20049;-92
2022/03/03 18:53:22;;;;;;;40.85;15.02;;;8.90;99.90;;;;;;4981735;28;20034;-91
2022/03/03 18:55:49;;;;;;;36.88;14.55;;;8.90;99.90;;;;;;4955461;28;20559;-93
2022/03/03 18:58:16;;;;;;;27.33;13.32;;;8.80;99.90;;;;;;4945687;29;20545;-92
2022/03/03 19:00:44;;;;;;;39.78;13.20;;;8.80;99.90;;;;;;4961962;29;20039;-93
2022/03/03 19:03:12;;;;;;;28.75;11.80;;;8.70;99.90;;;;;;4962842;29;20048;-93
2022/03/03 19:06:05;;;;;;;23.02;10.95;;;8.60;99.90;;;;;;4954238;29;20123;-92
2022/03/03 19:12:27;;;;;;;29.23;12.70;;;8.60;99.90;;;;;;4892014;29;20145;-93
2022/03/03 19:14:46;;;;;;;25.83;11.00;;;8.50;99.90;;;;;;4884701;29;20037;-94
2022/03/03 19:20:58;;;;;;;24.10;9.80;;;8.40;99.90;;;;;;4862340;29;20178;-92
2022/03/03 19:23:25;;;;;;;23.00;10.63;;;8.30;99.90;;;;;;4848288;29;20560;-91
2022/03/03 19:25:51;;;;;;;21.88;10.43;;;8.30;99.90;;;;;;4880545;29;20100;-92
2022/03/03 19:28:21;;;;;;;31.92;12.88;;;8.30;99.90;;;;;;4880523;29;20053;-93
2022/03/03 19:30:50;;;;;;;27.08;11.75;;;8.30;99.90;;;;;;4885294;29;20090;-94
2022/03/03 19:36:13;;;;;;;26.55;11.60;;;8.10;99.90;;;;;;4887902;29;20045;-93
2022/03/03 19:38:40;;;;;;;31.45;12.52;;;8.10;99.90;;;;;;4869866;29;20503;-91
2022/03/03 19:41:07;;;;;;;28.90;12.18;;;8.10;99.90;;;;;;4886488;29;20526;-92
2022/03/03 19:43:33;;;;;;;29.23;12.20;;;8.10;99.90;;;;;;4886749;29;20045;-92
2022/03/03 19:46:01;;;;;;;33.08;12.85;;;8.10;99.90;;;;;;4915182;29;20148;-90
2022/03/03 19:48:28;;;;;;;34.83;13.77;;;8.00;99.90;;;;;;4922802;29;20064;-89
2022/03/03 19:50:55;;;;;;;30.17;12.15;;;8.00;99.90;;;;;;4923393;29;20123;-90
2022/03/03 19:53:22;;;;;;;34.40;14.07;;;7.90;99.90;;;;;;4922312;29;20020;-89